BAW619 LICJ-EGLL
Flight info
| Callsign | BAW619 |
|---|---|
| Flight time | N/A |
| Altitude | 36000 |
| Route | GIANO5Q GIANO DCT RUGOX DCT MADKA DCT AJO DCT OMEDA DCT MERLU DCT PIGOS DCT BARSO DCT OKTET DCT GIPNO DCT BULOL DCT IDAVO DCT BAGBI DCT SIZZA DCT LAULY DCT BRY DCT CLM DCT KOPOR DCT ABNUR DCT DIMAL DCT ALESO ALESO1H |
| Aircraft | A20N/M-SDGHIJ1LRWXY/SB1 |
Departure
| Time | 2026-04-28 09:59 |
|---|---|
| Airport | Falcone–Borsellino Airport (LICJ) |
Arrival
| Time | N/A |
|---|---|
| Airport | London Heathrow Airport (EGLL) |
| Time | Latitude | Longitude | Altitude | Speed | Heading |
|---|---|---|---|---|---|
| 2026-04-28 09:41 | 38.18567 | 13.10664 | 65 ft | 0 kts | 337° |
| 2026-04-28 09:47 | 38.18564 | 13.10665 | 55 ft | 2 kts | 336° |
| 2026-04-28 09:48 | 38.18549 | 13.10674 | 63 ft | 2 kts | 337° |
| 2026-04-28 09:48 | 38.18533 | 13.10682 | 55 ft | 2 kts | 338° |
| 2026-04-28 09:48 | 38.18518 | 13.10689 | 61 ft | 2 kts | 343° |
| 2026-04-28 09:48 | 38.18502 | 13.10693 | 55 ft | 2 kts | 38° |
| 2026-04-28 09:49 | 38.18493 | 13.10675 | 55 ft | 2 kts | 65° |
| 2026-04-28 09:49 | 38.18486 | 13.10656 | 55 ft | 2 kts | 65° |
| 2026-04-28 09:49 | 38.18483 | 13.10646 | 59 ft | 0 kts | 65° |
| 2026-04-28 09:52 | 38.18488 | 13.10660 | 55 ft | 4 kts | 65° |
| 2026-04-28 09:52 | 38.18507 | 13.10731 | 56 ft | 13 kts | 84° |
| 2026-04-28 09:52 | 38.18476 | 13.10859 | 61 ft | 17 kts | 108° |
| 2026-04-28 09:52 | 38.18429 | 13.10993 | 65 ft | 17 kts | 87° |
| 2026-04-28 09:53 | 38.18475 | 13.11142 | 61 ft | 19 kts | 66° |
| 2026-04-28 09:53 | 38.18531 | 13.11304 | 57 ft | 21 kts | 66° |
| 2026-04-28 09:53 | 38.18591 | 13.11480 | 63 ft | 23 kts | 68° |
| 2026-04-28 09:53 | 38.18610 | 13.11673 | 65 ft | 19 kts | 98° |
| 2026-04-28 09:54 | 38.18605 | 13.11721 | 62 ft | 0 kts | 98° |
| 2026-04-28 09:57 | 38.18605 | 13.11723 | 62 ft | 1 kts | 98° |
| 2026-04-28 09:57 | 38.18598 | 13.11787 | 68 ft | 14 kts | 98° |
| 2026-04-28 09:57 | 38.18540 | 13.11884 | 70 ft | 17 kts | 189° |
| 2026-04-28 09:58 | 38.18460 | 13.11718 | 64 ft | 43 kts | 247° |
| 2026-04-28 09:58 | 38.18249 | 13.11087 | 67 ft | 109 kts | 247° |
| 2026-04-28 09:58 | 38.17881 | 13.09974 | 70 ft | 158 kts | 249° |
| 2026-04-28 09:58 | 38.17443 | 13.08641 | 482 ft | 169 kts | 248° |
| 2026-04-28 09:59 | 38.16950 | 13.07174 | 913 ft | 192 kts | 247° |
| 2026-04-28 09:59 | 38.16386 | 13.05514 | 1309 ft | 218 kts | 246° |
| 2026-04-28 09:59 | 38.15761 | 13.03666 | 1920 ft | 236 kts | 248° |
| 2026-04-28 09:59 | 38.15460 | 13.01553 | 2523 ft | 255 kts | 275° |
| 2026-04-28 10:00 | 38.16050 | 12.99392 | 3297 ft | 267 kts | 303° |
| 2026-04-28 10:00 | 38.17376 | 12.97715 | 4155 ft | 273 kts | 322° |
| 2026-04-28 10:00 | 38.18883 | 12.96209 | 4707 ft | 275 kts | 319° |
| 2026-04-28 10:00 | 38.20262 | 12.94515 | 4918 ft | 278 kts | 311° |
| 2026-04-28 10:01 | 38.21481 | 12.92608 | 4995 ft | 276 kts | 306° |
| 2026-04-28 10:01 | 38.22571 | 12.90600 | 4998 ft | 276 kts | 302° |
| 2026-04-28 10:01 | 38.23602 | 12.88536 | 5008 ft | 277 kts | 301° |
| 2026-04-28 10:01 | 38.24619 | 12.86438 | 5329 ft | 279 kts | 300° |
| 2026-04-28 10:02 | 38.25634 | 12.84341 | 6274 ft | 276 kts | 300° |
| 2026-04-28 10:02 | 38.26635 | 12.82280 | 7308 ft | 275 kts | 301° |
| 2026-04-28 10:02 | 38.27653 | 12.80202 | 8198 ft | 278 kts | 303° |
| 2026-04-28 10:02 | 38.28950 | 12.78372 | 9108 ft | 281 kts | 320° |
| 2026-04-28 10:03 | 38.30643 | 12.77099 | 10029 ft | 285 kts | 335° |
| 2026-04-28 10:03 | 38.32492 | 12.76071 | 10627 ft | 299 kts | 334° |
| 2026-04-28 10:03 | 38.34472 | 12.74954 | 10893 ft | 323 kts | 334° |
| 2026-04-28 10:03 | 38.36586 | 12.73753 | 11300 ft | 339 kts | 334° |
| 2026-04-28 10:04 | 38.38753 | 12.72519 | 12072 ft | 343 kts | 334° |
| 2026-04-28 10:04 | 38.40945 | 12.71267 | 12836 ft | 348 kts | 334° |
| 2026-04-28 10:04 | 38.43166 | 12.69996 | 13601 ft | 352 kts | 334° |
| 2026-04-28 10:04 | 38.45414 | 12.68708 | 14315 ft | 356 kts | 333° |
| 2026-04-28 10:05 | 38.47683 | 12.67407 | 15028 ft | 359 kts | 333° |
| 2026-04-28 10:05 | 38.49971 | 12.66094 | 15725 ft | 362 kts | 333° |
| 2026-04-28 10:05 | 38.52276 | 12.64770 | 16410 ft | 365 kts | 333° |
| 2026-04-28 10:05 | 38.54607 | 12.63431 | 17093 ft | 369 kts | 333° |
| 2026-04-28 10:06 | 38.56956 | 12.62080 | 17762 ft | 372 kts | 333° |
| 2026-04-28 10:06 | 38.59330 | 12.60714 | 18417 ft | 376 kts | 333° |
| 2026-04-28 10:06 | 38.61719 | 12.59339 | 19019 ft | 378 kts | 333° |
| 2026-04-28 10:06 | 38.64120 | 12.57956 | 19638 ft | 379 kts | 333° |
| 2026-04-28 10:07 | 38.66535 | 12.56564 | 20251 ft | 381 kts | 333° |
| 2026-04-28 10:07 | 38.68965 | 12.55161 | 20795 ft | 386 kts | 333° |
| 2026-04-28 10:07 | 38.71413 | 12.53746 | 21366 ft | 388 kts | 333° |
| 2026-04-28 10:07 | 38.73889 | 12.52315 | 21971 ft | 390 kts | 333° |
| 2026-04-28 10:08 | 38.76374 | 12.50879 | 22542 ft | 393 kts | 333° |
| 2026-04-28 10:08 | 38.78873 | 12.49432 | 23109 ft | 395 kts | 332° |
| 2026-04-28 10:08 | 38.81388 | 12.47975 | 23667 ft | 398 kts | 332° |
| 2026-04-28 10:08 | 38.83911 | 12.46497 | 24137 ft | 399 kts | 330° |
| 2026-04-28 10:09 | 38.86327 | 12.44742 | 24612 ft | 399 kts | 323° |
| 2026-04-28 10:09 | 38.88558 | 12.42638 | 25070 ft | 398 kts | 317° |
| 2026-04-28 10:09 | 38.90594 | 12.40232 | 25523 ft | 398 kts | 313° |
| 2026-04-28 10:09 | 38.92583 | 12.37760 | 26046 ft | 399 kts | 313° |
| 2026-04-28 10:10 | 38.94607 | 12.35261 | 26245 ft | 407 kts | 314° |
| 2026-04-28 10:10 | 38.96654 | 12.32738 | 26730 ft | 408 kts | 314° |
| 2026-04-28 10:10 | 38.98705 | 12.30211 | 27163 ft | 409 kts | 313° |
| 2026-04-28 10:10 | 39.00765 | 12.27666 | 27570 ft | 411 kts | 313° |
| 2026-04-28 10:11 | 39.02830 | 12.25112 | 27962 ft | 413 kts | 313° |
| 2026-04-28 10:11 | 39.04906 | 12.22540 | 28351 ft | 415 kts | 313° |
| 2026-04-28 10:11 | 39.06986 | 12.19959 | 28730 ft | 417 kts | 313° |
| 2026-04-28 10:11 | 39.09077 | 12.17362 | 29093 ft | 419 kts | 313° |
| 2026-04-28 10:12 | 39.11177 | 12.14752 | 29448 ft | 420 kts | 313° |
| 2026-04-28 10:12 | 39.13283 | 12.12131 | 29798 ft | 422 kts | 313° |
| 2026-04-28 10:12 | 39.15398 | 12.09497 | 30135 ft | 424 kts | 313° |
| 2026-04-28 10:12 | 39.17521 | 12.06852 | 30428 ft | 426 kts | 313° |
| 2026-04-28 10:13 | 39.19660 | 12.04181 | 30611 ft | 431 kts | 313° |
| 2026-04-28 10:13 | 39.21817 | 12.01485 | 30870 ft | 433 kts | 313° |
| 2026-04-28 10:13 | 39.23980 | 11.98781 | 31190 ft | 433 kts | 313° |
| 2026-04-28 10:13 | 39.26144 | 11.96076 | 31566 ft | 433 kts | 313° |
| 2026-04-28 10:14 | 39.28303 | 11.93373 | 31959 ft | 431 kts | 313° |
| 2026-04-28 10:14 | 39.29726 | 11.91591 | 32225 ft | 430 kts | 313° |
| 2026-04-28 10:14 | 39.31870 | 11.88903 | 32617 ft | 429 kts | 313° |
| 2026-04-28 10:14 | 39.34009 | 11.86219 | 32995 ft | 428 kts | 313° |
| 2026-04-28 10:15 | 39.36138 | 11.83545 | 33370 ft | 426 kts | 313° |
| 2026-04-28 10:15 | 39.38263 | 11.80872 | 33735 ft | 425 kts | 313° |
| 2026-04-28 10:15 | 39.40376 | 11.78213 | 34079 ft | 424 kts | 313° |
| 2026-04-28 10:15 | 39.42484 | 11.75558 | 34370 ft | 423 kts | 313° |
| 2026-04-28 10:16 | 39.44591 | 11.72901 | 34591 ft | 424 kts | 313° |
| 2026-04-28 10:16 | 39.46735 | 11.70195 | 34782 ft | 425 kts | 313° |
| 2026-04-28 10:16 | 39.48819 | 11.67562 | 35030 ft | 424 kts | 313° |
| 2026-04-28 10:16 | 39.50925 | 11.64901 | 35292 ft | 423 kts | 313° |
| 2026-04-28 10:17 | 39.53033 | 11.62235 | 35530 ft | 423 kts | 313° |
| 2026-04-28 10:17 | 39.55165 | 11.59535 | 35760 ft | 422 kts | 313° |
| 2026-04-28 10:17 | 39.57262 | 11.56878 | 35982 ft | 422 kts | 313° |
| 2026-04-28 10:17 | 39.59357 | 11.54220 | 36079 ft | 422 kts | 313° |
| 2026-04-28 10:18 | 39.63545 | 11.48902 | 36080 ft | 420 kts | 313° |
| 2026-04-28 10:18 | 39.67719 | 11.43589 | 36084 ft | 421 kts | 313° |
| 2026-04-28 10:19 | 39.71921 | 11.38230 | 36080 ft | 424 kts | 314° |
| 2026-04-28 10:19 | 39.76122 | 11.32866 | 36080 ft | 423 kts | 314° |
| 2026-04-28 10:20 | 39.80311 | 11.27507 | 36081 ft | 422 kts | 313° |
| 2026-04-28 10:20 | 39.84493 | 11.22148 | 36076 ft | 421 kts | 313° |
| 2026-04-28 10:21 | 39.88663 | 11.16793 | 36076 ft | 421 kts | 313° |
| 2026-04-28 10:21 | 39.92824 | 11.11440 | 36073 ft | 420 kts | 313° |
| 2026-04-28 10:22 | 39.96997 | 11.06059 | 36084 ft | 425 kts | 314° |
| 2026-04-28 10:22 | 40.01198 | 11.00637 | 36083 ft | 424 kts | 314° |
| 2026-04-28 10:23 | 40.05392 | 10.95215 | 36080 ft | 424 kts | 314° |
| 2026-04-28 10:23 | 40.09583 | 10.89784 | 36080 ft | 424 kts | 314° |
| 2026-04-28 10:24 | 40.13773 | 10.84345 | 36080 ft | 424 kts | 314° |
| 2026-04-28 10:24 | 40.17960 | 10.78901 | 36081 ft | 424 kts | 313° |
| 2026-04-28 10:25 | 40.22141 | 10.73453 | 36083 ft | 424 kts | 313° |
| 2026-04-28 10:25 | 40.26324 | 10.67992 | 36083 ft | 424 kts | 313° |
| 2026-04-28 10:26 | 40.30503 | 10.62527 | 36081 ft | 424 kts | 313° |
| 2026-04-28 10:26 | 40.34679 | 10.57057 | 36077 ft | 424 kts | 313° |
| 2026-04-28 10:27 | 40.38849 | 10.51584 | 36084 ft | 424 kts | 313° |
| 2026-04-28 10:27 | 40.43019 | 10.46100 | 36083 ft | 424 kts | 313° |
| 2026-04-28 10:28 | 40.47187 | 10.40608 | 36077 ft | 425 kts | 313° |
| 2026-04-28 10:29 | 40.53439 | 10.32352 | 36078 ft | 425 kts | 313° |
| 2026-04-28 10:29 | 40.57604 | 10.26840 | 36073 ft | 425 kts | 313° |
| 2026-04-28 10:30 | 40.61769 | 10.21316 | 36074 ft | 425 kts | 313° |
| 2026-04-28 10:30 | 40.65922 | 10.15798 | 36077 ft | 425 kts | 313° |
| 2026-04-28 10:31 | 40.70082 | 10.10261 | 36071 ft | 425 kts | 313° |
| 2026-04-28 10:31 | 40.74201 | 10.04766 | 36071 ft | 425 kts | 313° |
| 2026-04-28 10:32 | 40.78391 | 9.99169 | 36072 ft | 425 kts | 313° |
| 2026-04-28 10:32 | 40.82547 | 9.93605 | 36067 ft | 425 kts | 313° |
| 2026-04-28 10:33 | 40.86696 | 9.88040 | 36062 ft | 425 kts | 313° |
| 2026-04-28 10:33 | 40.90846 | 9.82464 | 36054 ft | 425 kts | 313° |
| 2026-04-28 10:34 | 40.94990 | 9.76885 | 36056 ft | 425 kts | 313° |
| 2026-04-28 10:34 | 40.99135 | 9.71294 | 36055 ft | 426 kts | 313° |
| 2026-04-28 10:35 | 41.03278 | 9.65695 | 36055 ft | 426 kts | 313° |
| 2026-04-28 10:35 | 41.07410 | 9.60101 | 36056 ft | 426 kts | 313° |
| 2026-04-28 10:36 | 41.11558 | 9.54475 | 36058 ft | 426 kts | 313° |
| 2026-04-28 10:36 | 41.15694 | 9.48853 | 36060 ft | 426 kts | 313° |
| 2026-04-28 10:37 | 41.19826 | 9.43231 | 36064 ft | 426 kts | 313° |
| 2026-04-28 10:37 | 41.23959 | 9.37598 | 36066 ft | 426 kts | 313° |
| 2026-04-28 10:38 | 41.28372 | 9.32337 | 36065 ft | 427 kts | 318° |
| 2026-04-28 10:38 | 41.32910 | 9.27305 | 36067 ft | 427 kts | 318° |
| 2026-04-28 10:39 | 41.37477 | 9.22206 | 36061 ft | 427 kts | 318° |
| 2026-04-28 10:39 | 41.42016 | 9.17113 | 36064 ft | 427 kts | 318° |
| 2026-04-28 10:40 | 41.46556 | 9.12010 | 36061 ft | 427 kts | 318° |
| 2026-04-28 10:40 | 41.51094 | 9.06900 | 36052 ft | 427 kts | 317° |
| 2026-04-28 10:41 | 41.55626 | 9.01787 | 36047 ft | 427 kts | 317° |
| 2026-04-28 10:41 | 41.60156 | 8.96667 | 36052 ft | 426 kts | 317° |
| 2026-04-28 10:42 | 41.64686 | 8.91536 | 36057 ft | 426 kts | 317° |
| 2026-04-28 10:42 | 41.69211 | 8.86402 | 36068 ft | 427 kts | 317° |
| 2026-04-28 10:43 | 41.73735 | 8.81257 | 36070 ft | 427 kts | 317° |
| 2026-04-28 10:43 | 41.78493 | 8.76488 | 36077 ft | 429 kts | 326° |
| 2026-04-28 10:44 | 41.83731 | 8.72610 | 36071 ft | 430 kts | 328° |
| 2026-04-28 10:44 | 41.88978 | 8.68743 | 36075 ft | 430 kts | 328° |
| 2026-04-28 10:45 | 41.94228 | 8.64872 | 36075 ft | 431 kts | 328° |
| 2026-04-28 10:45 | 41.99483 | 8.60998 | 36075 ft | 431 kts | 328° |
| 2026-04-28 10:46 | 42.04704 | 8.57143 | 36068 ft | 431 kts | 328° |
| 2026-04-28 10:46 | 42.09957 | 8.53258 | 36075 ft | 431 kts | 328° |
| 2026-04-28 10:47 | 42.15212 | 8.49363 | 36056 ft | 431 kts | 328° |
| 2026-04-28 10:47 | 42.20461 | 8.45465 | 36051 ft | 431 kts | 328° |
| 2026-04-28 10:48 | 42.25706 | 8.41562 | 36044 ft | 430 kts | 328° |
| 2026-04-28 10:48 | 42.30947 | 8.37655 | 36049 ft | 430 kts | 328° |
| 2026-04-28 10:49 | 42.36187 | 8.33743 | 36051 ft | 430 kts | 328° |
| 2026-04-28 10:49 | 42.41417 | 8.29829 | 36048 ft | 430 kts | 328° |
| 2026-04-28 10:50 | 42.46648 | 8.25908 | 36044 ft | 430 kts | 328° |
| 2026-04-28 10:50 | 42.51874 | 8.21983 | 36043 ft | 429 kts | 328° |
| 2026-04-28 10:51 | 42.57099 | 8.18051 | 36053 ft | 429 kts | 328° |
| 2026-04-28 10:51 | 42.62319 | 8.14116 | 36052 ft | 429 kts | 328° |
| 2026-04-28 10:52 | 42.67539 | 8.10172 | 36049 ft | 429 kts | 328° |
| 2026-04-28 10:52 | 42.72757 | 8.06222 | 36049 ft | 429 kts | 328° |
| 2026-04-28 10:53 | 42.77972 | 8.02268 | 36063 ft | 429 kts | 328° |
| 2026-04-28 10:53 | 42.83182 | 7.98310 | 36061 ft | 429 kts | 328° |
| 2026-04-28 10:54 | 42.88386 | 7.94348 | 36056 ft | 428 kts | 327° |
| 2026-04-28 10:54 | 42.93586 | 7.90381 | 36058 ft | 428 kts | 327° |
| 2026-04-28 10:55 | 42.97909 | 7.87077 | 36057 ft | 428 kts | 327° |
| 2026-04-28 10:55 | 43.03139 | 7.83074 | 36064 ft | 428 kts | 327° |
| 2026-04-28 10:56 | 43.08334 | 7.79090 | 36067 ft | 428 kts | 327° |
| 2026-04-28 10:56 | 43.13517 | 7.75093 | 36054 ft | 428 kts | 327° |
| 2026-04-28 10:57 | 43.18697 | 7.71088 | 36070 ft | 428 kts | 327° |
| 2026-04-28 10:57 | 43.23874 | 7.67078 | 36070 ft | 427 kts | 327° |
| 2026-04-28 10:58 | 43.29049 | 7.63062 | 36062 ft | 427 kts | 327° |
| 2026-04-28 10:58 | 43.34185 | 7.59069 | 36060 ft | 427 kts | 327° |
| 2026-04-28 10:59 | 43.39357 | 7.55041 | 36074 ft | 427 kts | 327° |
| 2026-04-28 10:59 | 43.44533 | 7.51001 | 36062 ft | 428 kts | 327° |
| 2026-04-28 11:00 | 43.49705 | 7.46955 | 36061 ft | 428 kts | 327° |
| 2026-04-28 11:00 | 43.54878 | 7.42902 | 36065 ft | 428 kts | 327° |
| 2026-04-28 11:01 | 43.60050 | 7.38841 | 36083 ft | 428 kts | 327° |
| 2026-04-28 11:01 | 43.65090 | 7.34502 | 36079 ft | 426 kts | 323° |
| 2026-04-28 11:02 | 43.70035 | 7.29979 | 36076 ft | 426 kts | 323° |
| 2026-04-28 11:02 | 43.74987 | 7.25452 | 36080 ft | 426 kts | 323° |
| 2026-04-28 11:03 | 43.79936 | 7.20910 | 36085 ft | 427 kts | 323° |
| 2026-04-28 11:03 | 43.84885 | 7.16356 | 36082 ft | 427 kts | 323° |
| 2026-04-28 11:04 | 43.89818 | 7.11808 | 36068 ft | 425 kts | 322° |
| 2026-04-28 11:04 | 43.94736 | 7.07264 | 36064 ft | 425 kts | 322° |
| 2026-04-28 11:05 | 43.99657 | 7.02704 | 36064 ft | 426 kts | 322° |
| 2026-04-28 11:05 | 44.04622 | 6.98100 | 36058 ft | 425 kts | 322° |
| 2026-04-28 11:06 | 44.09534 | 6.93537 | 36053 ft | 424 kts | 322° |
| 2026-04-28 11:06 | 44.14442 | 6.88965 | 36058 ft | 425 kts | 322° |
| 2026-04-28 11:07 | 44.19358 | 6.84375 | 36069 ft | 426 kts | 322° |
| 2026-04-28 11:07 | 44.24269 | 6.79778 | 36049 ft | 425 kts | 322° |
| 2026-04-28 11:08 | 44.29179 | 6.75173 | 36050 ft | 425 kts | 322° |
| 2026-04-28 11:08 | 44.34085 | 6.70562 | 36045 ft | 425 kts | 322° |
| 2026-04-28 11:09 | 44.38986 | 6.65947 | 36037 ft | 425 kts | 322° |
| 2026-04-28 11:09 | 44.43886 | 6.61324 | 36048 ft | 425 kts | 322° |
| 2026-04-28 11:10 | 44.48789 | 6.56688 | 36048 ft | 425 kts | 322° |
| 2026-04-28 11:10 | 44.53657 | 6.52076 | 36045 ft | 425 kts | 321° |
| 2026-04-28 11:11 | 44.58586 | 6.47401 | 36043 ft | 424 kts | 322° |
| 2026-04-28 11:11 | 44.63440 | 6.42788 | 36021 ft | 424 kts | 321° |
| 2026-04-28 11:12 | 44.68359 | 6.38099 | 36033 ft | 424 kts | 321° |
| 2026-04-28 11:12 | 44.73241 | 6.33438 | 36025 ft | 424 kts | 321° |
| 2026-04-28 11:13 | 44.78087 | 6.28802 | 36018 ft | 424 kts | 321° |
| 2026-04-28 11:13 | 44.82989 | 6.24102 | 36040 ft | 423 kts | 321° |
| 2026-04-28 11:14 | 44.87850 | 6.19433 | 36027 ft | 423 kts | 321° |
| 2026-04-28 11:14 | 44.92704 | 6.14759 | 36036 ft | 423 kts | 321° |
| 2026-04-28 11:15 | 44.97614 | 6.10020 | 36032 ft | 426 kts | 321° |
| 2026-04-28 11:15 | 45.02472 | 6.05325 | 36032 ft | 425 kts | 321° |
| 2026-04-28 11:16 | 45.07359 | 6.00591 | 36040 ft | 421 kts | 321° |
| 2026-04-28 11:16 | 45.12166 | 5.95923 | 36027 ft | 424 kts | 321° |
| 2026-04-28 11:17 | 45.17029 | 5.91191 | 36032 ft | 424 kts | 321° |
| 2026-04-28 11:17 | 45.21884 | 5.86460 | 36030 ft | 423 kts | 321° |
| 2026-04-28 11:18 | 45.26734 | 5.81722 | 36024 ft | 423 kts | 320° |
| 2026-04-28 11:18 | 45.31570 | 5.76988 | 36011 ft | 422 kts | 320° |
| 2026-04-28 11:19 | 45.36318 | 5.72331 | 36011 ft | 421 kts | 320° |
| 2026-04-28 11:19 | 45.41142 | 5.67588 | 36008 ft | 421 kts | 320° |
| 2026-04-28 11:20 | 45.45901 | 5.62899 | 36011 ft | 421 kts | 320° |
| 2026-04-28 11:20 | 45.50714 | 5.58148 | 36009 ft | 421 kts | 320° |
| 2026-04-28 11:21 | 45.55531 | 5.53384 | 36009 ft | 421 kts | 320° |
| 2026-04-28 11:21 | 45.60457 | 5.48812 | 36006 ft | 423 kts | 323° |
| 2026-04-28 11:22 | 45.65482 | 5.44420 | 36013 ft | 424 kts | 323° |
| 2026-04-28 11:22 | 45.70401 | 5.40055 | 36011 ft | 424 kts | 322° |
| 2026-04-28 11:23 | 45.75403 | 5.35573 | 36015 ft | 425 kts | 322° |
| 2026-04-28 11:23 | 45.80413 | 5.31069 | 36019 ft | 425 kts | 322° |
| 2026-04-28 11:24 | 45.85425 | 5.26554 | 36045 ft | 426 kts | 322° |
| 2026-04-28 11:24 | 45.90443 | 5.22025 | 36028 ft | 426 kts | 322° |
| 2026-04-28 11:25 | 45.95463 | 5.17484 | 36028 ft | 426 kts | 322° |
| 2026-04-28 11:25 | 46.00481 | 5.12936 | 36021 ft | 427 kts | 322° |
| 2026-04-28 11:26 | 46.05615 | 5.08581 | 36040 ft | 434 kts | 328° |
| 2026-04-28 11:26 | 46.11112 | 5.05080 | 36022 ft | 432 kts | 330° |
| 2026-04-28 11:27 | 46.16611 | 5.01563 | 36023 ft | 433 kts | 330° |
| 2026-04-28 11:27 | 46.22123 | 4.98036 | 36029 ft | 433 kts | 330° |
| 2026-04-28 11:28 | 46.27636 | 4.94508 | 36035 ft | 434 kts | 330° |
| 2026-04-28 11:28 | 46.33123 | 4.90991 | 36023 ft | 435 kts | 330° |
| 2026-04-28 11:29 | 46.38694 | 4.87413 | 36035 ft | 434 kts | 329° |
| 2026-04-28 11:29 | 46.44215 | 4.83858 | 36027 ft | 434 kts | 329° |
| 2026-04-28 11:30 | 46.49737 | 4.80294 | 36013 ft | 435 kts | 329° |
| 2026-04-28 11:30 | 46.58034 | 4.74926 | 36014 ft | 435 kts | 329° |
| 2026-04-28 11:31 | 46.63565 | 4.71337 | 36017 ft | 435 kts | 329° |
| 2026-04-28 11:31 | 46.69098 | 4.67739 | 36018 ft | 436 kts | 329° |
| 2026-04-28 11:32 | 46.74634 | 4.64130 | 36020 ft | 436 kts | 329° |
| 2026-04-28 11:32 | 46.80178 | 4.60507 | 36026 ft | 437 kts | 329° |
| 2026-04-28 11:33 | 46.85737 | 4.56883 | 36031 ft | 438 kts | 329° |
| 2026-04-28 11:33 | 46.91308 | 4.53267 | 36031 ft | 439 kts | 329° |
| 2026-04-28 11:34 | 46.96890 | 4.49632 | 36034 ft | 440 kts | 329° |
| 2026-04-28 11:34 | 47.02482 | 4.45978 | 36026 ft | 440 kts | 329° |
| 2026-04-28 11:35 | 47.08078 | 4.42313 | 36028 ft | 441 kts | 329° |
| 2026-04-28 11:35 | 47.13683 | 4.38635 | 36033 ft | 442 kts | 329° |
| 2026-04-28 11:36 | 47.19293 | 4.34944 | 36035 ft | 442 kts | 329° |
| 2026-04-28 11:36 | 47.24903 | 4.31245 | 36038 ft | 442 kts | 329° |
| 2026-04-28 11:37 | 47.29565 | 4.28165 | 36033 ft | 442 kts | 329° |
| 2026-04-28 11:37 | 47.35175 | 4.24450 | 36027 ft | 442 kts | 329° |
| 2026-04-28 11:38 | 47.40781 | 4.20729 | 36023 ft | 442 kts | 329° |
| 2026-04-28 11:38 | 47.46388 | 4.16999 | 36025 ft | 442 kts | 329° |
| 2026-04-28 11:39 | 47.52010 | 4.13246 | 36043 ft | 445 kts | 329° |
| 2026-04-28 11:39 | 47.57701 | 4.09444 | 36019 ft | 445 kts | 329° |
| 2026-04-28 11:40 | 47.58653 | 4.08808 | 36018 ft | 445 kts | 329° |